sensor_id;sensor_type;location;lat;lon;timestamp;temperature;humidity
9919;DHT22;4998;51.024;13.828;2023-08-12T00:01:17;22.80;64.20
9919;DHT22;4998;51.024;13.828;2023-08-12T00:03:46;22.80;64.10
9919;DHT22;4998;51.024;13.828;2023-08-12T00:06:13;22.70;64.40
9919;DHT22;4998;51.024;13.828;2023-08-12T00:08:40;22.70;64.60
9919;DHT22;4998;51.024;13.828;2023-08-12T00:11:07;22.70;64.80
9919;DHT22;4998;51.024;13.828;2023-08-12T00:13:36;22.70;65.00
9919;DHT22;4998;51.024;13.828;2023-08-12T00:16:03;22.60;65.20
9919;DHT22;4998;51.024;13.828;2023-08-12T00:18:30;22.60;65.20
9919;DHT22;4998;51.024;13.828;2023-08-12T00:21:06;22.60;65.30
9919;DHT22;4998;51.024;13.828;2023-08-12T00:23:35;22.60;65.70
9919;DHT22;4998;51.024;13.828;2023-08-12T00:26:02;22.50;65.60
9919;DHT22;4998;51.024;13.828;2023-08-12T00:28:29;22.50;65.80
9919;DHT22;4998;51.024;13.828;2023-08-12T00:30:57;22.50;65.90
9919;DHT22;4998;51.024;13.828;2023-08-12T00:33:24;22.50;66.20
9919;DHT22;4998;51.024;13.828;2023-08-12T00:35:51;22.50;66.10
9919;DHT22;4998;51.024;13.828;2023-08-12T00:38:18;22.50;66.20
9919;DHT22;4998;51.024;13.828;2023-08-12T00:40:45;22.50;66.40
9919;DHT22;4998;51.024;13.828;2023-08-12T00:43:12;22.40;66.40
9919;DHT22;4998;51.024;13.828;2023-08-12T00:45:39;22.40;66.50
9919;DHT22;4998;51.024;13.828;2023-08-12T00:48:08;22.40;66.60
9919;DHT22;4998;51.024;13.828;2023-08-12T00:50:36;22.40;66.90
9919;DHT22;4998;51.024;13.828;2023-08-12T00:53:04;22.40;66.90
9919;DHT22;4998;51.024;13.828;2023-08-12T00:55:33;22.40;67.00
9919;DHT22;4998;51.024;13.828;2023-08-12T00:58:00;22.40;68.00
9919;DHT22;4998;51.024;13.828;2023-08-12T01:00:27;22.40;67.30
9919;DHT22;4998;51.024;13.828;2023-08-12T01:02:55;22.40;67.30
9919;DHT22;4998;51.024;13.828;2023-08-12T01:05:24;22.30;67.60
9919;DHT22;4998;51.024;13.828;2023-08-12T01:07:51;22.30;67.60
9919;DHT22;4998;51.024;13.828;2023-08-12T01:10:20;22.30;67.60
9919;DHT22;4998;51.024;13.828;2023-08-12T01:12:52;22.30;67.70
9919;DHT22;4998;51.024;13.828;2023-08-12T01:15:23;22.30;68.00
9919;DHT22;4998;51.024;13.828;2023-08-12T01:17:54;22.30;67.70
9919;DHT22;4998;51.024;13.828;2023-08-12T01:20:23;22.20;68.10
9919;DHT22;4998;51.024;13.828;2023-08-12T01:22:56;22.20;68.00
9919;DHT22;4998;51.024;13.828;2023-08-12T01:25:25;22.20;68.30
9919;DHT22;4998;51.024;13.828;2023-08-12T01:27:52;22.20;68.20
9919;DHT22;4998;51.024;13.828;2023-08-12T01:30:20;22.10;68.10
9919;DHT22;4998;51.024;13.828;2023-08-12T01:32:54;22.30;68.70
9919;DHT22;4998;51.024;13.828;2023-08-12T01:35:26;22.10;68.90
9919;DHT22;4998;51.024;13.828;2023-08-12T01:37:56;22.00;68.80
9919;DHT22;4998;51.024;13.828;2023-08-12T01:40:25;22.00;68.90
9919;DHT22;4998;51.024;13.828;2023-08-12T01:42:54;22.00;69.10
9919;DHT22;4998;51.024;13.828;2023-08-12T01:45:22;22.00;69.10
9919;DHT22;4998;51.024;13.828;2023-08-12T01:47:50;22.00;69.30
9919;DHT22;4998;51.024;13.828;2023-08-12T01:50:17;22.00;69.30
9919;DHT22;4998;51.024;13.828;2023-08-12T01:52:44;22.00;69.50
9919;DHT22;4998;51.024;13.828;2023-08-12T01:55:11;22.00;69.60
9919;DHT22;4998;51.024;13.828;2023-08-12T01:57:40;22.00;69.70
9919;DHT22;4998;51.024;13.828;2023-08-12T02:00:08;22.00;69.90
9919;DHT22;4998;51.024;13.828;2023-08-12T02:02:35;22.00;69.90
9919;DHT22;4998;51.024;13.828;2023-08-12T02:05:02;22.10;70.00
9919;DHT22;4998;51.024;13.828;2023-08-12T02:07:29;22.10;70.10
9919;DHT22;4998;51.024;13.828;2023-08-12T02:09:56;22.10;70.20
9919;DHT22;4998;51.024;13.828;2023-08-12T02:12:23;22.10;70.30
9919;DHT22;4998;51.024;13.828;2023-08-12T02:14:51;22.10;70.20
9919;DHT22;4998;51.024;13.828;2023-08-12T02:17:18;22.10;70.50
9919;DHT22;4998;51.024;13.828;2023-08-12T02:19:45;22.10;70.40
9919;DHT22;4998;51.024;13.828;2023-08-12T02:22:12;22.10;70.40
9919;DHT22;4998;51.024;13.828;2023-08-12T02:24:39;22.10;70.60
9919;DHT22;4998;51.024;13.828;2023-08-12T02:27:06;22.10;70.50
9919;DHT22;4998;51.024;13.828;2023-08-12T02:29:33;22.00;70.50
9919;DHT22;4998;51.024;13.828;2023-08-12T02:32:02;22.00;70.60
9919;DHT22;4998;51.024;13.828;2023-08-12T02:34:29;22.00;70.80
9919;DHT22;4998;51.024;13.828;2023-08-12T02:36:56;22.00;70.70
9919;DHT22;4998;51.024;13.828;2023-08-12T02:39:23;22.00;70.80
9919;DHT22;4998;51.024;13.828;2023-08-12T02:41:50;22.00;70.80
9919;DHT22;4998;51.024;13.828;2023-08-12T02:44:17;22.00;70.80
9919;DHT22;4998;51.024;13.828;2023-08-12T02:46:44;22.00;71.10
9919;DHT22;4998;51.024;13.828;2023-08-12T02:49:12;22.00;71.00
9919;DHT22;4998;51.024;13.828;2023-08-12T02:51:39;22.00;71.10
9919;DHT22;4998;51.024;13.828;2023-08-12T02:54:06;21.90;70.90
9919;DHT22;4998;51.024;13.828;2023-08-12T02:56:33;21.90;71.10
9919;DHT22;4998;51.024;13.828;2023-08-12T02:59:00;21.90;71.20
9919;DHT22;4998;51.024;13.828;2023-08-12T03:01:27;21.90;71.30
9919;DHT22;4998;51.024;13.828;2023-08-12T03:03:55;21.80;71.30
9919;DHT22;4998;51.024;13.828;2023-08-12T03:06:24;21.80;71.40
9919;DHT22;4998;51.024;13.828;2023-08-12T03:08:51;21.80;71.60
9919;DHT22;4998;51.024;13.828;2023-08-12T03:11:18;21.80;71.60
9919;DHT22;4998;51.024;13.828;2023-08-12T03:13:45;21.80;71.70
9919;DHT22;4998;51.024;13.828;2023-08-12T03:16:12;21.80;71.90
9919;DHT22;4998;51.024;13.828;2023-08-12T03:18:39;21.70;72.00
9919;DHT22;4998;51.024;13.828;2023-08-12T03:21:07;21.70;72.00
9919;DHT22;4998;51.024;13.828;2023-08-12T03:23:35;21.70;72.00
9919;DHT22;4998;51.024;13.828;2023-08-12T03:26:03;21.70;72.00
9919;DHT22;4998;51.024;13.828;2023-08-12T03:28:30;21.70;72.20
9919;DHT22;4998;51.024;13.828;2023-08-12T03:30:57;21.70;72.30
9919;DHT22;4998;51.024;13.828;2023-08-12T03:33:24;21.60;72.30
9919;DHT22;4998;51.024;13.828;2023-08-12T03:35:51;21.60;72.40
9919;DHT22;4998;51.024;13.828;2023-08-12T03:38:18;21.60;72.40
9919;DHT22;4998;51.024;13.828;2023-08-12T03:40:47;21.60;72.50
9919;DHT22;4998;51.024;13.828;2023-08-12T03:43:14;21.60;72.80
9919;DHT22;4998;51.024;13.828;2023-08-12T03:45:41;21.60;72.70
9919;DHT22;4998;51.024;13.828;2023-08-12T03:48:08;21.60;72.80
9919;DHT22;4998;51.024;13.828;2023-08-12T03:50:37;21.60;73.00
9919;DHT22;4998;51.024;13.828;2023-08-12T03:53:04;21.60;72.80
9919;DHT22;4998;51.024;13.828;2023-08-12T03:55:32;21.60;73.10
9919;DHT22;4998;51.024;13.828;2023-08-12T03:58:01;21.60;73.00
9919;DHT22;4998;51.024;13.828;2023-08-12T04:00:28;21.60;73.30
9919;DHT22;4998;51.024;13.828;2023-08-12T04:02:55;21.60;73.30
9919;DHT22;4998;51.024;13.828;2023-08-12T04:05:22;21.60;73.30
9919;DHT22;4998;51.024;13.828;2023-08-12T04:07:49;21.50;73.10
9919;DHT22;4998;51.024;13.828;2023-08-12T04:10:16;21.50;73.00
9919;DHT22;4998;51.024;13.828;2023-08-12T04:12:43;21.50;73.20
9919;DHT22;4998;51.024;13.828;2023-08-12T04:15:12;21.50;73.30
9919;DHT22;4998;51.024;13.828;2023-08-12T04:17:39;21.50;73.50
9919;DHT22;4998;51.024;13.828;2023-08-12T04:20:07;21.50;73.10
9919;DHT22;4998;51.024;13.828;2023-08-12T04:22:34;21.50;73.60
9919;DHT22;4998;51.024;13.828;2023-08-12T04:25:02;21.60;73.70
9919;DHT22;4998;51.024;13.828;2023-08-12T04:27:29;21.50;73.60
9919;DHT22;4998;51.024;13.828;2023-08-12T04:29:56;21.60;73.70
9919;DHT22;4998;51.024;13.828;2023-08-12T04:32:24;21.60;73.80
9919;DHT22;4998;51.024;13.828;2023-08-12T04:34:51;21.60;73.90
9919;DHT22;4998;51.024;13.828;2023-08-12T04:37:18;21.60;73.90
9919;DHT22;4998;51.024;13.828;2023-08-12T04:39:45;21.60;74.10
9919;DHT22;4998;51.024;13.828;2023-08-12T04:42:13;21.70;74.20
9919;DHT22;4998;51.024;13.828;2023-08-12T04:44:40;21.70;74.20
9919;DHT22;4998;51.024;13.828;2023-08-12T04:47:07;21.70;74.30
9919;DHT22;4998;51.024;13.828;2023-08-12T04:49:35;21.70;74.40
9919;DHT22;4998;51.024;13.828;2023-08-12T04:52:02;21.80;74.60
9919;DHT22;4998;51.024;13.828;2023-08-12T04:54:29;21.80;74.60
9919;DHT22;4998;51.024;13.828;2023-08-12T04:56:56;21.90;74.60
9919;DHT22;4998;51.024;13.828;2023-08-12T04:59:24;21.90;74.90
9919;DHT22;4998;51.024;13.828;2023-08-12T05:01:51;21.90;74.70
9919;DHT22;4998;51.024;13.828;2023-08-12T05:04:18;22.00;74.80
9919;DHT22;4998;51.024;13.828;2023-08-12T05:06:46;22.00;74.80
9919;DHT22;4998;51.024;13.828;2023-08-12T05:09:14;22.10;74.80
9919;DHT22;4998;51.024;13.828;2023-08-12T05:11:41;22.10;74.80
9919;DHT22;4998;51.024;13.828;2023-08-12T05:14:08;22.20;75.00
9919;DHT22;4998;51.024;13.828;2023-08-12T05:16:35;22.20;75.00
9919;DHT22;4998;51.024;13.828;2023-08-12T05:19:02;22.30;75.00
9919;DHT22;4998;51.024;13.828;2023-08-12T05:21:29;22.40;75.00
9919;DHT22;4998;51.024;13.828;2023-08-12T05:23:57;22.40;74.60
9919;DHT22;4998;51.024;13.828;2023-08-12T05:26:24;22.50;74.50
9919;DHT22;4998;51.024;13.828;2023-08-12T05:28:51;22.60;74.60
9919;DHT22;4998;51.024;13.828;2023-08-12T05:31:18;22.70;74.50
9919;DHT22;4998;51.024;13.828;2023-08-12T05:33:45;22.80;74.40
9919;DHT22;4998;51.024;13.828;2023-08-12T05:36:12;22.90;74.40
9919;DHT22;4998;51.024;13.828;2023-08-12T05:38:39;23.00;74.60
9919;DHT22;4998;51.024;13.828;2023-08-12T05:41:07;23.10;74.60
9919;DHT22;4998;51.024;13.828;2023-08-12T05:43:34;23.30;74.70
9919;DHT22;4998;51.024;13.828;2023-08-12T05:46:01;23.50;74.60
9919;DHT22;4998;51.024;13.828;2023-08-12T05:48:28;23.70;74.60
9919;DHT22;4998;51.024;13.828;2023-08-12T05:50:55;23.90;74.30
9919;DHT22;4998;51.024;13.828;2023-08-12T05:53:22;24.20;73.80
9919;DHT22;4998;51.024;13.828;2023-08-12T05:55:49;24.40;73.30
9919;DHT22;4998;51.024;13.828;2023-08-12T05:58:18;24.60;72.50
9919;DHT22;4998;51.024;13.828;2023-08-12T06:00:46;24.80;72.00
9919;DHT22;4998;51.024;13.828;2023-08-12T06:03:13;25.00;71.60
9919;DHT22;4998;51.024;13.828;2023-08-12T06:05:40;25.10;71.10
9919;DHT22;4998;51.024;13.828;2023-08-12T06:08:07;25.30;70.60
9919;DHT22;4998;51.024;13.828;2023-08-12T06:10:34;25.40;70.10
9919;DHT22;4998;51.024;13.828;2023-08-12T06:13:01;25.60;69.70
9919;DHT22;4998;51.024;13.828;2023-08-12T06:15:30;25.70;69.00
9919;DHT22;4998;51.024;13.828;2023-08-12T06:17:59;25.90;68.20
9919;DHT22;4998;51.024;13.828;2023-08-12T06:20:26;26.00;67.80
9919;DHT22;4998;51.024;13.828;2023-08-12T06:22:53;26.10;67.50
9919;DHT22;4998;51.024;13.828;2023-08-12T06:25:20;26.30;67.40
9919;DHT22;4998;51.024;13.828;2023-08-12T06:27:47;26.30;67.10
9919;DHT22;4998;51.024;13.828;2023-08-12T06:30:14;26.40;66.60
9919;DHT22;4998;51.024;13.828;2023-08-12T06:32:43;26.50;66.30
9919;DHT22;4998;51.024;13.828;2023-08-12T06:35:10;26.60;65.30
9919;DHT22;4998;51.024;13.828;2023-08-12T06:37:37;26.70;65.00
9919;DHT22;4998;51.024;13.828;2023-08-12T06:40:05;26.70;65.10
9919;DHT22;4998;51.024;13.828;2023-08-12T06:42:32;26.80;64.80
9919;DHT22;4998;51.024;13.828;2023-08-12T06:44:59;26.90;64.60
9919;DHT22;4998;51.024;13.828;2023-08-12T06:47:29;27.00;64.40
9919;DHT22;4998;51.024;13.828;2023-08-12T06:49:57;27.10;64.10
9919;DHT22;4998;51.024;13.828;2023-08-12T06:52:25;27.20;64.00
9919;DHT22;4998;51.024;13.828;2023-08-12T06:54:52;27.30;63.70
9919;DHT22;4998;51.024;13.828;2023-08-12T06:57:19;27.30;62.90
9919;DHT22;4998;51.024;13.828;2023-08-12T06:59:45;27.40;62.40
9919;DHT22;4998;51.024;13.828;2023-08-12T07:02:12;27.40;62.00
9919;DHT22;4998;51.024;13.828;2023-08-12T07:04:39;27.40;62.00
9919;DHT22;4998;51.024;13.828;2023-08-12T07:07:08;27.40;61.80
9919;DHT22;4998;51.024;13.828;2023-08-12T07:09:35;27.30;61.30
9919;DHT22;4998;51.024;13.828;2023-08-12T07:12:02;27.30;61.30
9919;DHT22;4998;51.024;13.828;2023-08-12T07:14:29;27.30;61.60
9919;DHT22;4998;51.024;13.828;2023-08-12T07:16:56;27.30;61.70
9919;DHT22;4998;51.024;13.828;2023-08-12T07:19:23;27.30;61.80
9919;DHT22;4998;51.024;13.828;2023-08-12T07:21:50;27.40;62.00
9919;DHT22;4998;51.024;13.828;2023-08-12T07:24:19;27.40;61.80
9919;DHT22;4998;51.024;13.828;2023-08-12T07:26:46;27.50;61.70
9919;DHT22;4998;51.024;13.828;2023-08-12T07:29:14;27.50;61.90
9919;DHT22;4998;51.024;13.828;2023-08-12T07:31:41;27.50;62.10
9919;DHT22;4998;51.024;13.828;2023-08-12T07:34:08;27.60;62.40
9919;DHT22;4998;51.024;13.828;2023-08-12T07:36:38;27.70;62.70
9919;DHT22;4998;51.024;13.828;2023-08-12T07:39:05;27.80;62.30
9919;DHT22;4998;51.024;13.828;2023-08-12T07:41:34;27.90;62.40
9919;DHT22;4998;51.024;13.828;2023-08-12T07:44:01;28.00;62.30
9919;DHT22;4998;51.024;13.828;2023-08-12T07:46:28;28.10;62.40
9919;DHT22;4998;51.024;13.828;2023-08-12T07:48:55;28.20;62.00
9919;DHT22;4998;51.024;13.828;2023-08-12T07:51:23;28.30;61.70
9919;DHT22;4998;51.024;13.828;2023-08-12T07:53:50;28.40;61.30
9919;DHT22;4998;51.024;13.828;2023-08-12T07:56:17;28.50;60.90
9919;DHT22;4998;51.024;13.828;2023-08-12T07:58:45;28.60;60.80
9919;DHT22;4998;51.024;13.828;2023-08-12T08:01:13;28.60;60.70
9919;DHT22;4998;51.024;13.828;2023-08-12T08:03:40;28.70;60.60
9919;DHT22;4998;51.024;13.828;2023-08-12T08:06:07;28.80;60.30
9919;DHT22;4998;51.024;13.828;2023-08-12T08:08:34;28.90;60.20
9919;DHT22;4998;51.024;13.828;2023-08-12T08:11:01;28.90;60.20
9919;DHT22;4998;51.024;13.828;2023-08-12T08:13:28;29.00;60.00
9919;DHT22;4998;51.024;13.828;2023-08-12T08:15:56;29.10;59.80
9919;DHT22;4998;51.024;13.828;2023-08-12T08:18:23;29.20;59.40
9919;DHT22;4998;51.024;13.828;2023-08-12T08:20:50;29.20;59.20
9919;DHT22;4998;51.024;13.828;2023-08-12T08:23:17;29.30;59.00
9919;DHT22;4998;51.024;13.828;2023-08-12T08:25:44;29.30;58.90
9919;DHT22;4998;51.024;13.828;2023-08-12T08:28:11;29.40;58.70
9919;DHT22;4998;51.024;13.828;2023-08-12T08:30:38;29.40;58.60
9919;DHT22;4998;51.024;13.828;2023-08-12T08:33:06;29.40;59.10
9919;DHT22;4998;51.024;13.828;2023-08-12T08:35:36;29.40;58.30
9919;DHT22;4998;51.024;13.828;2023-08-12T08:38:03;29.50;58.30
9919;DHT22;4998;51.024;13.828;2023-08-12T08:40:30;29.50;58.10
9919;DHT22;4998;51.024;13.828;2023-08-12T08:43:02;29.50;57.80
9919;DHT22;4998;51.024;13.828;2023-08-12T08:45:32;29.60;57.70
9919;DHT22;4998;51.024;13.828;2023-08-12T08:47:59;29.60;57.70
9919;DHT22;4998;51.024;13.828;2023-08-12T08:50:30;29.60;57.60
9919;DHT22;4998;51.024;13.828;2023-08-12T08:52:57;29.60;57.40
9919;DHT22;4998;51.024;13.828;2023-08-12T08:55:24;29.60;57.50
9919;DHT22;4998;51.024;13.828;2023-08-12T08:57:52;29.60;57.50
9919;DHT22;4998;51.024;13.828;2023-08-12T09:00:19;29.60;57.30
9919;DHT22;4998;51.024;13.828;2023-08-12T09:02:47;29.60;57.30
9919;DHT22;4998;51.024;13.828;2023-08-12T09:05:15;29.70;57.50
9919;DHT22;4998;51.024;13.828;2023-08-12T09:07:44;29.70;57.40
9919;DHT22;4998;51.024;13.828;2023-08-12T09:10:12;29.70;57.30
9919;DHT22;4998;51.024;13.828;2023-08-12T09:12:39;29.70;57.40
9919;DHT22;4998;51.024;13.828;2023-08-12T09:15:07;29.70;57.40
9919;DHT22;4998;51.024;13.828;2023-08-12T09:17:35;29.80;57.00
9919;DHT22;4998;51.024;13.828;2023-08-12T09:20:02;29.80;57.10
9919;DHT22;4998;51.024;13.828;2023-08-12T09:22:33;29.80;57.00
9919;DHT22;4998;51.024;13.828;2023-08-12T09:25:02;29.90;57.00
9919;DHT22;4998;51.024;13.828;2023-08-12T09:27:30;29.90;57.00
9919;DHT22;4998;51.024;13.828;2023-08-12T09:29:58;29.90;56.80
9919;DHT22;4998;51.024;13.828;2023-08-12T09:32:25;30.00;56.60
9919;DHT22;4998;51.024;13.828;2023-08-12T09:34:54;30.00;56.20
9919;DHT22;4998;51.024;13.828;2023-08-12T09:37:22;30.10;55.80
9919;DHT22;4998;51.024;13.828;2023-08-12T09:39:51;30.20;55.90
9919;DHT22;4998;51.024;13.828;2023-08-12T09:42:20;30.20;56.10
9919;DHT22;4998;51.024;13.828;2023-08-12T09:44:47;30.30;55.80
9919;DHT22;4998;51.024;13.828;2023-08-12T09:47:14;30.40;55.20
9919;DHT22;4998;51.024;13.828;2023-08-12T09:49:41;30.50;55.20
9919;DHT22;4998;51.024;13.828;2023-08-12T09:52:08;30.60;55.20
9919;DHT22;4998;51.024;13.828;2023-08-12T09:54:35;30.60;55.00
9919;DHT22;4998;51.024;13.828;2023-08-12T09:57:04;30.70;54.00
9919;DHT22;4998;51.024;13.828;2023-08-12T09:59:34;30.80;53.40
9919;DHT22;4998;51.024;13.828;2023-08-12T10:02:02;30.90;52.70
9919;DHT22;4998;51.024;13.828;2023-08-12T10:04:35;31.00;52.90
9919;DHT22;4998;51.024;13.828;2023-08-12T10:07:05;31.20;52.30
9919;DHT22;4998;51.024;13.828;2023-08-12T10:09:32;31.20;51.90
9919;DHT22;4998;51.024;13.828;2023-08-12T10:12:01;31.40;52.10
9919;DHT22;4998;51.024;13.828;2023-08-12T10:14:29;31.50;51.70
9919;DHT22;4998;51.024;13.828;2023-08-12T10:16:58;31.70;51.30
9919;DHT22;4998;51.024;13.828;2023-08-12T10:19:25;31.80;50.70
9919;DHT22;4998;51.024;13.828;2023-08-12T10:21:56;31.80;50.40
9919;DHT22;4998;51.024;13.828;2023-08-12T10:24:24;31.90;50.00
9919;DHT22;4998;51.024;13.828;2023-08-12T10:26:54;32.00;49.90
9919;DHT22;4998;51.024;13.828;2023-08-12T10:29:23;32.10;49.60
9919;DHT22;4998;51.024;13.828;2023-08-12T10:31:50;32.10;49.50
9919;DHT22;4998;51.024;13.828;2023-08-12T10:34:20;32.20;49.50
9919;DHT22;4998;51.024;13.828;2023-08-12T10:36:47;32.20;49.10
9919;DHT22;4998;51.024;13.828;2023-08-12T10:39:14;32.30;49.20
9919;DHT22;4998;51.024;13.828;2023-08-12T10:41:51;32.30;49.20
9919;DHT22;4998;51.024;13.828;2023-08-12T10:44:20;32.30;48.60
9919;DHT22;4998;51.024;13.828;2023-08-12T10:46:50;32.40;48.40
9919;DHT22;4998;51.024;13.828;2023-08-12T10:49:20;32.40;48.20
9919;DHT22;4998;51.024;13.828;2023-08-12T10:51:49;32.40;48.20
9919;DHT22;4998;51.024;13.828;2023-08-12T10:54:19;32.40;48.20
9919;DHT22;4998;51.024;13.828;2023-08-12T10:57:08;32.40;48.40
9919;DHT22;4998;51.024;13.828;2023-08-12T10:59:51;32.40;48.50
9919;DHT22;4998;51.024;13.828;2023-08-12T11:02:20;32.40;49.20
9919;DHT22;4998;51.024;13.828;2023-08-12T11:04:53;32.40;49.20
9919;DHT22;4998;51.024;13.828;2023-08-12T11:07:27;32.40;48.60
9919;DHT22;4998;51.024;13.828;2023-08-12T11:09:59;32.40;48.70
9919;DHT22;4998;51.024;13.828;2023-08-12T11:12:30;32.40;48.70
9919;DHT22;4998;51.024;13.828;2023-08-12T11:14:59;32.40;48.80
9919;DHT22;4998;51.024;13.828;2023-08-12T11:17:34;32.40;48.60
9919;DHT22;4998;51.024;13.828;2023-08-12T11:20:05;32.40;48.50
9919;DHT22;4998;51.024;13.828;2023-08-12T11:22:34;32.40;48.40
9919;DHT22;4998;51.024;13.828;2023-08-12T11:25:03;32.40;48.50
9919;DHT22;4998;51.024;13.828;2023-08-12T11:27:39;32.40;48.40
9919;DHT22;4998;51.024;13.828;2023-08-12T11:30:08;32.50;48.30
9919;DHT22;4998;51.024;13.828;2023-08-12T11:32:36;32.50;48.80
9919;DHT22;4998;51.024;13.828;2023-08-12T11:35:06;32.50;48.70
9919;DHT22;4998;51.024;13.828;2023-08-12T11:37:35;32.50;48.40
9919;DHT22;4998;51.024;13.828;2023-08-12T11:40:04;32.50;48.40
9919;DHT22;4998;51.024;13.828;2023-08-12T11:42:31;32.60;48.70
9919;DHT22;4998;51.024;13.828;2023-08-12T11:44:58;32.60;48.30
9919;DHT22;4998;51.024;13.828;2023-08-12T11:47:25;32.70;48.00
9919;DHT22;4998;51.024;13.828;2023-08-12T11:49:53;32.70;47.90
9919;DHT22;4998;51.024;13.828;2023-08-12T11:52:22;32.70;47.70
9919;DHT22;4998;51.024;13.828;2023-08-12T11:54:50;32.70;47.90
9919;DHT22;4998;51.024;13.828;2023-08-12T11:57:17;32.80;47.60
9919;DHT22;4998;51.024;13.828;2023-08-12T11:59:44;32.80;47.40
9919;DHT22;4998;51.024;13.828;2023-08-12T12:02:11;32.80;47.20
9919;DHT22;4998;51.024;13.828;2023-08-12T12:04:41;32.80;47.30
9919;DHT22;4998;51.024;13.828;2023-08-12T12:07:18;32.80;47.20
9919;DHT22;4998;51.024;13.828;2023-08-12T12:09:46;32.80;47.20
9919;DHT22;4998;51.024;13.828;2023-08-12T12:12:14;32.80;46.90
9919;DHT22;4998;51.024;13.828;2023-08-12T12:14:41;32.80;46.80
9919;DHT22;4998;51.024;13.828;2023-08-12T12:17:08;32.80;46.90
9919;DHT22;4998;51.024;13.828;2023-08-12T12:19:36;32.80;47.20
9919;DHT22;4998;51.024;13.828;2023-08-12T12:22:04;32.90;47.40
9919;DHT22;4998;51.024;13.828;2023-08-12T12:24:31;32.90;47.20
9919;DHT22;4998;51.024;13.828;2023-08-12T12:27:11;32.90;47.10
9919;DHT22;4998;51.024;13.828;2023-08-12T12:29:38;32.90;46.80
9919;DHT22;4998;51.024;13.828;2023-08-12T12:32:05;32.90;46.70
9919;DHT22;4998;51.024;13.828;2023-08-12T12:34:32;32.90;46.70
9919;DHT22;4998;51.024;13.828;2023-08-12T12:36:59;32.90;47.00
9919;DHT22;4998;51.024;13.828;2023-08-12T12:39:26;33.00;46.70
9919;DHT22;4998;51.024;13.828;2023-08-12T12:41:53;33.00;46.80
9919;DHT22;4998;51.024;13.828;2023-08-12T12:44:22;33.00;46.50
9919;DHT22;4998;51.024;13.828;2023-08-12T12:46:49;33.00;46.40
9919;DHT22;4998;51.024;13.828;2023-08-12T12:49:16;33.00;46.50
9919;DHT22;4998;51.024;13.828;2023-08-12T12:51:43;33.00;46.60
9919;DHT22;4998;51.024;13.828;2023-08-12T12:54:10;33.00;47.20
9919;DHT22;4998;51.024;13.828;2023-08-12T12:56:37;33.00;46.60
9919;DHT22;4998;51.024;13.828;2023-08-12T12:59:04;33.10;46.60
9919;DHT22;4998;51.024;13.828;2023-08-12T13:01:33;33.10;46.50
9919;DHT22;4998;51.024;13.828;2023-08-12T13:04:00;33.10;46.40
9919;DHT22;4998;51.024;13.828;2023-08-12T13:06:27;33.10;46.50
9919;DHT22;4998;51.024;13.828;2023-08-12T13:08:54;33.10;46.40
9919;DHT22;4998;51.024;13.828;2023-08-12T13:11:21;33.10;46.60
9919;DHT22;4998;51.024;13.828;2023-08-12T13:13:48;33.10;46.40
9919;DHT22;4998;51.024;13.828;2023-08-12T13:16:15;33.10;46.50
9919;DHT22;4998;51.024;13.828;2023-08-12T13:18:44;33.10;46.60
9919;DHT22;4998;51.024;13.828;2023-08-12T13:21:11;33.10;46.40
9919;DHT22;4998;51.024;13.828;2023-08-12T13:23:38;33.20;46.60
9919;DHT22;4998;51.024;13.828;2023-08-12T13:26:05;33.20;46.50
9919;DHT22;4998;51.024;13.828;2023-08-12T13:28:32;33.20;46.60
9919;DHT22;4998;51.024;13.828;2023-08-12T13:30:59;33.20;46.60
9919;DHT22;4998;51.024;13.828;2023-08-12T13:33:26;33.10;46.60
9919;DHT22;4998;51.024;13.828;2023-08-12T13:35:55;33.20;46.80
9919;DHT22;4998;51.024;13.828;2023-08-12T13:38:22;33.20;46.90
9919;DHT22;4998;51.024;13.828;2023-08-12T13:40:49;33.20;47.00
9919;DHT22;4998;51.024;13.828;2023-08-12T13:43:16;33.20;47.10
9919;DHT22;4998;51.024;13.828;2023-08-12T13:45:43;33.20;47.10
9919;DHT22;4998;51.024;13.828;2023-08-12T13:48:10;33.20;47.10
9919;DHT22;4998;51.024;13.828;2023-08-12T13:50:37;33.30;47.20
9919;DHT22;4998;51.024;13.828;2023-08-12T13:53:05;33.30;47.10
9919;DHT22;4998;51.024;13.828;2023-08-12T13:55:32;33.30;47.00
9919;DHT22;4998;51.024;13.828;2023-08-12T13:57:59;33.30;47.00
9919;DHT22;4998;51.024;13.828;2023-08-12T14:00:26;33.30;47.00
9919;DHT22;4998;51.024;13.828;2023-08-12T14:02:53;33.30;47.00
9919;DHT22;4998;51.024;13.828;2023-08-12T14:05:20;33.40;46.80
9919;DHT22;4998;51.024;13.828;2023-08-12T14:07:47;33.30;46.60
9919;DHT22;4998;51.024;13.828;2023-08-12T14:10:16;33.30;46.80
9919;DHT22;4998;51.024;13.828;2023-08-12T14:12:43;33.30;46.70
9919;DHT22;4998;51.024;13.828;2023-08-12T14:15:11;33.40;46.90
9919;DHT22;4998;51.024;13.828;2023-08-12T14:17:38;33.40;46.90
9919;DHT22;4998;51.024;13.828;2023-08-12T14:20:06;33.40;47.10
9919;DHT22;4998;51.024;13.828;2023-08-12T14:22:33;33.50;47.40
9919;DHT22;4998;51.024;13.828;2023-08-12T14:25:01;33.50;47.30
9919;DHT22;4998;51.024;13.828;2023-08-12T14:27:31;33.60;47.10
9919;DHT22;4998;51.024;13.828;2023-08-12T14:29:58;33.70;46.70
9919;DHT22;4998;51.024;13.828;2023-08-12T14:32:25;33.70;46.70
9919;DHT22;4998;51.024;13.828;2023-08-12T14:34:52;33.80;46.50
9919;DHT22;4998;51.024;13.828;2023-08-12T14:37:19;33.90;46.10
9919;DHT22;4998;51.024;13.828;2023-08-12T14:39:46;33.90;45.80
9919;DHT22;4998;51.024;13.828;2023-08-12T14:42:13;34.00;45.80
9919;DHT22;4998;51.024;13.828;2023-08-12T14:44:41;34.00;45.60
9919;DHT22;4998;51.024;13.828;2023-08-12T14:47:08;34.00;45.50
9919;DHT22;4998;51.024;13.828;2023-08-12T14:49:35;34.00;45.00
9919;DHT22;4998;51.024;13.828;2023-08-12T14:52:03;34.00;45.00
9919;DHT22;4998;51.024;13.828;2023-08-12T14:54:30;34.00;45.10
9919;DHT22;4998;51.024;13.828;2023-08-12T14:56:57;34.00;45.00
9919;DHT22;4998;51.024;13.828;2023-08-12T14:59:24;34.00;45.00
9919;DHT22;4998;51.024;13.828;2023-08-12T15:01:52;34.00;45.00
9919;DHT22;4998;51.024;13.828;2023-08-12T15:04:19;34.00;45.00
9919;DHT22;4998;51.024;13.828;2023-08-12T15:06:46;34.00;45.10
9919;DHT22;4998;51.024;13.828;2023-08-12T15:09:13;34.00;44.90
9919;DHT22;4998;51.024;13.828;2023-08-12T15:11:40;34.00;44.70
9919;DHT22;4998;51.024;13.828;2023-08-12T15:14:08;34.00;44.60
9919;DHT22;4998;51.024;13.828;2023-08-12T15:16:35;34.00;44.60
9919;DHT22;4998;51.024;13.828;2023-08-12T15:19:04;34.10;44.60
9919;DHT22;4998;51.024;13.828;2023-08-12T15:21:32;34.10;44.50
9919;DHT22;4998;51.024;13.828;2023-08-12T15:23:59;34.00;44.50
9919;DHT22;4998;51.024;13.828;2023-08-12T15:26:26;34.10;44.70
9919;DHT22;4998;51.024;13.828;2023-08-12T15:28:53;34.10;44.70
9919;DHT22;4998;51.024;13.828;2023-08-12T15:31:20;34.10;44.70
9919;DHT22;4998;51.024;13.828;2023-08-12T15:33:48;34.10;44.90
9919;DHT22;4998;51.024;13.828;2023-08-12T15:36:16;34.10;45.00
9919;DHT22;4998;51.024;13.828;2023-08-12T15:38:46;34.10;45.00
9919;DHT22;4998;51.024;13.828;2023-08-12T15:41:15;34.20;44.70
9919;DHT22;4998;51.024;13.828;2023-08-12T15:43:42;34.20;44.50
9919;DHT22;4998;51.024;13.828;2023-08-12T15:46:10;34.20;44.60
9919;DHT22;4998;51.024;13.828;2023-08-12T15:48:37;34.20;44.20